createdAt,value
2016-12-15T00:00:54.996Z,23.62
2016-12-15T00:01:58.446Z,23.63
2016-12-15T00:03:01.901Z,23.63
2016-12-15T00:04:05.348Z,23.66
2016-12-15T00:05:08.808Z,23.61
2016-12-15T00:06:12.262Z,23.68
2016-12-15T00:07:15.718Z,23.65
2016-12-15T00:08:19.170Z,23.68
2016-12-15T00:09:22.623Z,23.62
2016-12-15T00:10:26.083Z,23.59
2016-12-15T00:11:29.531Z,23.61
2016-12-15T00:12:32.985Z,23.62
2016-12-15T00:13:36.445Z,23.63
2016-12-15T00:14:39.893Z,23.59
2016-12-15T00:15:43.346Z,23.61
2016-12-15T00:16:46.803Z,23.61
2016-12-15T00:17:50.255Z,23.59
2016-12-15T00:18:53.711Z,23.65
2016-12-15T00:19:57.168Z,23.61
2016-12-15T00:21:00.617Z,23.62
2016-12-15T00:22:04.071Z,23.62
2016-12-15T00:23:07.525Z,23.62
2016-12-15T00:24:10.979Z,23.62
2016-12-15T00:25:14.431Z,23.59
2016-12-15T00:26:17.891Z,23.61
2016-12-15T00:27:21.341Z,23.61
2016-12-15T00:28:24.794Z,23.56
2016-12-15T00:29:28.250Z,23.56
2016-12-15T00:30:31.702Z,23.61
2016-12-15T00:31:35.156Z,23.56
2016-12-15T00:32:38.613Z,23.62
2016-12-15T00:33:42.064Z,23.58
2016-12-15T00:34:45.518Z,23.54
2016-12-15T00:35:48.978Z,23.54
2016-12-15T00:36:52.426Z,23.56
2016-12-15T00:37:55.880Z,23.58
2016-12-15T00:38:59.337Z,23.62
2016-12-15T00:40:02.787Z,23.61
2016-12-15T00:41:06.241Z,23.58
2016-12-15T00:42:09.697Z,23.63
2016-12-15T00:43:13.149Z,23.56
2016-12-15T00:44:16.602Z,23.62
2016-12-15T00:45:20.058Z,23.62
2016-12-15T00:46:23.511Z,23.62
2016-12-15T00:47:26.965Z,23.62
2016-12-15T00:48:30.431Z,23.62
2016-12-15T00:49:33.874Z,23.61
2016-12-15T00:50:37.332Z,23.61
2016-12-15T00:51:40.790Z,23.63
2016-12-15T00:52:44.235Z,23.61
2016-12-15T00:53:47.688Z,23.61
2016-12-15T00:54:51.146Z,23.61
2016-12-15T00:55:54.596Z,23.54
2016-12-15T00:56:58.050Z,23.55
2016-12-15T00:58:01.505Z,23.58
2016-12-15T00:59:04.958Z,23.62
2016-12-15T01:00:08.411Z,23.61
2016-12-15T01:01:11.866Z,23.62
2016-12-15T01:02:15.320Z,23.62
2016-12-15T01:03:18.773Z,23.56
2016-12-15T01:04:22.229Z,23.55
2016-12-15T01:05:25.681Z,23.58
2016-12-15T01:06:29.135Z,23.62
2016-12-15T01:07:32.591Z,23.55
2016-12-15T01:08:36.044Z,23.55
2016-12-15T01:09:39.497Z,23.58
2016-12-15T01:10:42.952Z,23.58
2016-12-15T01:11:46.405Z,23.58
2016-12-15T01:12:49.859Z,23.58
2016-12-15T01:13:53.320Z,23.59
2016-12-15T01:14:56.767Z,23.63
2016-12-15T01:16:00.222Z,23.55
2016-12-15T01:17:03.676Z,23.54
2016-12-15T01:18:07.129Z,23.48
2016-12-15T01:19:10.583Z,23.55
2016-12-15T01:20:14.037Z,23.63
2016-12-15T01:21:17.491Z,23.56
2016-12-15T01:22:20.944Z,23.59
2016-12-15T01:23:24.403Z,23.55
2016-12-15T01:24:27.852Z,23.56
2016-12-15T01:25:31.306Z,23.61
2016-12-15T01:26:34.761Z,23.62
2016-12-15T01:27:38.214Z,23.56
2016-12-15T01:28:41.668Z,23.59
2016-12-15T01:29:45.124Z,23.51
2016-12-15T01:30:48.577Z,23.51
2016-12-15T01:31:52.029Z,23.5
2016-12-15T01:32:55.486Z,23.5
2016-12-15T01:33:58.938Z,23.55
2016-12-15T01:35:02.392Z,23.51
2016-12-15T01:36:05.846Z,23.47
2016-12-15T01:37:09.300Z,23.47
2016-12-15T01:38:12.753Z,23.59
2016-12-15T01:39:16.209Z,23.5
2016-12-15T01:40:19.662Z,23.59
2016-12-15T01:41:23.116Z,23.5
2016-12-15T01:42:26.570Z,23.55
2016-12-15T01:43:30.024Z,23.5
2016-12-15T01:44:33.477Z,23.56
2016-12-15T01:45:36.933Z,23.48
2016-12-15T01:46:40.385Z,23.48
2016-12-15T01:47:43.838Z,23.47
2016-12-15T01:48:47.296Z,23.47
2016-12-15T01:49:50.747Z,23.59
2016-12-15T01:50:54.200Z,23.46
2016-12-15T01:51:57.655Z,23.5
2016-12-15T01:53:01.107Z,23.5
2016-12-15T01:54:04.562Z,23.47
2016-12-15T01:55:08.020Z,23.47
2016-12-15T01:56:11.469Z,23.55
2016-12-15T01:57:14.923Z,23.47
2016-12-15T01:58:18.378Z,23.46
2016-12-15T01:59:21.831Z,23.54
2016-12-15T02:00:25.285Z,23.54
2016-12-15T02:01:28.745Z,23.44
2016-12-15T02:02:32.193Z,23.48
2016-12-15T02:03:35.647Z,23.51
2016-12-15T02:04:39.102Z,23.47
2016-12-15T02:05:42.555Z,23.47
2016-12-15T02:06:46.009Z,23.46
2016-12-15T02:07:49.465Z,23.48
2016-12-15T02:08:52.916Z,23.46
2016-12-15T02:09:56.370Z,23.44
2016-12-15T02:10:59.829Z,23.54
2016-12-15T02:12:03.278Z,23.47
2016-12-15T02:13:06.732Z,23.47
2016-12-15T02:14:10.189Z,23.46
2016-12-15T02:15:13.641Z,23.47
2016-12-15T02:16:17.106Z,23.48
2016-12-15T02:17:20.563Z,23.44
2016-12-15T02:18:24.010Z,23.46
2016-12-15T02:19:27.463Z,23.46
2016-12-15T02:20:30.920Z,23.46
2016-12-15T02:21:34.364Z,23.48
2016-12-15T02:22:37.817Z,23.43
2016-12-15T02:23:41.273Z,23.48
2016-12-15T02:24:44.726Z,23.43
2016-12-15T02:25:48.179Z,23.44
2016-12-15T02:26:51.634Z,23.44
2016-12-15T02:27:55.087Z,23.44
2016-12-15T02:28:58.541Z,23.46
2016-12-15T02:30:01.999Z,23.5
2016-12-15T02:31:05.449Z,23.46
2016-12-15T02:32:08.903Z,23.44
2016-12-15T02:33:12.357Z,23.54
2016-12-15T02:34:15.811Z,23.5
2016-12-15T02:35:19.269Z,23.48
2016-12-15T02:36:22.730Z,23.51
2016-12-15T02:37:26.175Z,23.48
2016-12-15T02:38:29.632Z,23.47
2016-12-15T02:39:33.091Z,23.47
2016-12-15T02:40:36.536Z,23.47
2016-12-15T02:41:39.994Z,23.46
2016-12-15T02:42:43.453Z,23.54
2016-12-15T02:43:46.903Z,23.46
2016-12-15T02:44:50.357Z,23.43
2016-12-15T02:45:53.811Z,23.46
2016-12-15T02:46:57.257Z,23.51
2016-12-15T02:48:00.712Z,23.46
2016-12-15T02:49:04.167Z,23.44
2016-12-15T02:50:07.619Z,23.55
2016-12-15T02:51:11.073Z,23.47
2016-12-15T02:52:14.529Z,23.44
2016-12-15T02:53:17.981Z,23.51
2016-12-15T02:54:21.435Z,23.51
2016-12-15T02:55:24.889Z,23.43
2016-12-15T02:56:28.346Z,23.48
2016-12-15T02:57:31.796Z,23.51
2016-12-15T02:58:35.252Z,23.5
2016-12-15T02:59:38.704Z,23.37
2016-12-15T03:00:42.159Z,23.41
2016-12-15T03:01:45.612Z,23.4
2016-12-15T03:02:49.066Z,23.51
2016-12-15T03:03:52.512Z,23.47
2016-12-15T03:04:55.962Z,23.37
2016-12-15T03:05:59.405Z,23.5
2016-12-15T03:07:02.862Z,23.41
2016-12-15T03:08:06.309Z,23.41
2016-12-15T03:09:09.761Z,23.41
2016-12-15T03:10:13.219Z,23.48
2016-12-15T03:11:16.663Z,23.34
2016-12-15T03:12:20.834Z,23.39
2016-12-15T03:13:24.289Z,23.4
2016-12-15T03:14:27.741Z,23.48
2016-12-15T03:15:31.195Z,23.48
2016-12-15T03:16:34.646Z,23.34
2016-12-15T03:17:38.103Z,23.37
2016-12-15T03:18:41.556Z,23.41
2016-12-15T03:19:45.012Z,23.37
2016-12-15T03:20:48.465Z,23.43
2016-12-15T03:21:51.919Z,23.46
2016-12-15T03:22:55.373Z,23.4
2016-12-15T03:23:58.827Z,23.37
2016-12-15T03:25:02.281Z,23.41
2016-12-15T03:26:05.738Z,23.43
2016-12-15T03:27:09.189Z,23.46
2016-12-15T03:28:12.642Z,23.34
2016-12-15T03:29:16.097Z,23.5
2016-12-15T03:30:19.550Z,23.46
2016-12-15T03:31:23.003Z,23.36
2016-12-15T03:32:26.464Z,23.46
2016-12-15T03:33:29.913Z,23.46
2016-12-15T03:34:33.366Z,23.37
2016-12-15T03:35:36.820Z,23.44
2016-12-15T03:36:40.273Z,23.32
2016-12-15T03:37:43.726Z,23.39
2016-12-15T03:38:47.184Z,23.39
2016-12-15T03:39:50.635Z,23.4
2016-12-15T03:40:54.087Z,23.39
2016-12-15T03:41:57.544Z,23.34
2016-12-15T03:43:00.997Z,23.37
2016-12-15T03:44:04.450Z,23.4
2016-12-15T03:45:07.908Z,23.39
2016-12-15T03:46:11.359Z,23.47
2016-12-15T03:47:14.813Z,23.4
2016-12-15T03:48:18.270Z,23.36
2016-12-15T03:49:21.720Z,23.34
2016-12-15T03:50:25.173Z,23.41
2016-12-15T03:51:28.631Z,23.36
2016-12-15T03:52:32.083Z,23.4
2016-12-15T03:53:35.536Z,23.36
2016-12-15T03:54:38.992Z,23.4
2016-12-15T03:55:42.443Z,23.36
2016-12-15T03:56:45.896Z,23.4
2016-12-15T03:57:49.355Z,23.36
2016-12-15T03:58:52.805Z,23.34
2016-12-15T03:59:56.260Z,23.36
2016-12-15T04:00:59.717Z,23.41
2016-12-15T04:02:03.168Z,23.43
2016-12-15T04:03:06.623Z,23.32
2016-12-15T04:04:10.075Z,23.36
2016-12-15T04:05:13.529Z,23.43
2016-12-15T04:06:16.984Z,23.28
2016-12-15T04:07:21.286Z,23.4
2016-12-15T04:08:48.876Z,23.39
2016-12-15T04:09:52.322Z,23.4
2016-12-15T04:10:55.771Z,23.36
2016-12-15T04:11:59.213Z,23.4
2016-12-15T04:13:02.667Z,23.39
2016-12-15T04:14:06.111Z,23.4
2016-12-15T04:15:09.565Z,23.44
2016-12-15T04:16:13.020Z,23.32
2016-12-15T04:17:16.473Z,23.4
2016-12-15T04:18:19.926Z,23.37
2016-12-15T04:19:23.388Z,23.36
2016-12-15T04:20:26.835Z,23.31
2016-12-15T04:21:30.288Z,23.39
2016-12-15T04:22:33.744Z,23.44
2016-12-15T04:23:37.197Z,23.31
2016-12-15T04:24:40.650Z,23.37
2016-12-15T04:25:44.106Z,23.37
2016-12-15T04:26:47.557Z,23.43
2016-12-15T04:27:51.010Z,23.39
2016-12-15T04:28:54.467Z,23.41
2016-12-15T04:29:57.921Z,23.31
2016-12-15T04:31:01.373Z,23.32
2016-12-15T04:32:04.815Z,23.34
2016-12-15T04:33:08.259Z,23.28
2016-12-15T04:34:11.716Z,23.34
2016-12-15T04:35:15.163Z,23.32
2016-12-15T04:36:18.612Z,23.41
2016-12-15T04:37:22.070Z,23.23
2016-12-15T04:38:25.517Z,23.32
2016-12-15T04:39:28.970Z,23.36
2016-12-15T04:40:32.425Z,23.4
2016-12-15T04:41:35.880Z,23.37
2016-12-15T04:42:39.331Z,23.28
2016-12-15T04:43:42.786Z,23.37
2016-12-15T04:44:46.242Z,23.4
2016-12-15T04:45:49.694Z,23.31
2016-12-15T04:46:53.149Z,23.37
2016-12-15T04:47:56.602Z,23.28
2016-12-15T04:49:00.055Z,23.37
2016-12-15T04:50:03.510Z,23.34
2016-12-15T04:51:06.963Z,23.34
2016-12-15T04:52:10.415Z,23.31
2016-12-15T04:53:13.871Z,23.41
2016-12-15T04:54:17.325Z,23.27
2016-12-15T04:55:20.778Z,23.24
2016-12-15T04:56:24.234Z,23.43
2016-12-15T04:57:27.687Z,23.31
2016-12-15T04:58:31.180Z,23.21
2016-12-15T04:59:34.628Z,23.37
2016-12-15T05:00:38.115Z,23.23
2016-12-15T05:01:41.570Z,23.23
2016-12-15T05:02:45.024Z,23.32
2016-12-15T05:03:48.487Z,23.27
2016-12-15T05:04:51.944Z,23.32
2016-12-15T05:05:55.386Z,23.31
2016-12-15T05:06:58.855Z,23.32
2016-12-15T05:08:02.304Z,23.28
2016-12-15T05:09:05.747Z,23.39
2016-12-15T05:10:09.200Z,23.36
2016-12-15T05:11:12.655Z,23.36
2016-12-15T05:12:16.108Z,23.24
2016-12-15T05:13:19.561Z,23.31
2016-12-15T05:14:23.017Z,23.28
2016-12-15T05:15:26.471Z,23.31
2016-12-15T05:16:29.923Z,23.34
2016-12-15T05:17:33.383Z,23.28
2016-12-15T05:18:36.832Z,23.25
2016-12-15T05:19:40.287Z,23.34
2016-12-15T05:20:43.740Z,23.4
2016-12-15T05:21:47.194Z,23.41
2016-12-15T05:22:50.647Z,23.03
2016-12-15T05:23:54.103Z,22.62
2016-12-15T05:24:57.555Z,22.23
2016-12-15T05:26:01.008Z,22.17
2016-12-15T05:27:04.446Z,22.07
2016-12-15T05:28:07.918Z,22.06
2016-12-15T05:29:11.371Z,22.08
2016-12-15T05:30:14.815Z,22.13
2016-12-15T05:31:18.269Z,22.23
2016-12-15T05:32:21.703Z,22.23
2016-12-15T05:33:25.152Z,22.22
2016-12-15T05:34:28.606Z,22.18
2016-12-15T05:35:32.062Z,22.2
2016-12-15T05:36:35.515Z,22.17
2016-12-15T05:37:38.960Z,22.2
2016-12-15T05:38:42.406Z,22.17
2016-12-15T05:39:45.853Z,22.25
2016-12-15T05:40:49.307Z,22.28
2016-12-15T05:41:52.750Z,22.28
2016-12-15T05:42:56.207Z,22.25
2016-12-15T05:43:59.666Z,22.29
2016-12-15T05:45:03.112Z,22.41
2016-12-15T05:46:06.566Z,22.48
2016-12-15T05:47:10.017Z,22.63
2016-12-15T05:48:13.473Z,22.59
2016-12-15T05:49:16.926Z,22.66
2016-12-15T05:50:20.382Z,22.62
2016-12-15T05:51:23.826Z,22.6
2016-12-15T05:52:27.281Z,22.55
2016-12-15T05:53:30.731Z,22.62
2016-12-15T05:54:34.175Z,22.55
2016-12-15T05:55:37.642Z,22.59
2016-12-15T05:56:41.091Z,22.62
2016-12-15T05:57:44.531Z,22.5
2016-12-15T05:58:47.987Z,22.59
2016-12-15T05:59:51.433Z,22.62
2016-12-15T06:00:54.883Z,22.69
2016-12-15T06:01:58.347Z,22.65
2016-12-15T06:03:01.795Z,22.7
2016-12-15T06:04:05.255Z,22.7
2016-12-15T06:05:08.700Z,22.63
2016-12-15T06:06:12.154Z,22.72
2016-12-15T06:07:15.611Z,22.66
2016-12-15T06:08:19.064Z,22.63
2016-12-15T06:09:22.516Z,22.62
2016-12-15T06:10:25.974Z,22.62
2016-12-15T06:11:29.435Z,22.63
2016-12-15T06:12:32.880Z,22.63
2016-12-15T06:13:36.342Z,22.68
2016-12-15T06:14:39.799Z,22.68
2016-12-15T06:16:10.351Z,22.7
2016-12-15T06:17:13.805Z,22.59
2016-12-15T06:18:17.249Z,22.62
2016-12-15T06:19:20.703Z,22.66
2016-12-15T06:20:24.171Z,22.63
2016-12-15T06:21:27.612Z,22.66
2016-12-15T06:22:31.063Z,22.63
2016-12-15T06:23:34.523Z,22.63
2016-12-15T06:24:37.960Z,22.63
2016-12-15T06:25:41.422Z,22.55
2016-12-15T06:26:44.879Z,22.65
2016-12-15T06:27:48.325Z,22.6
2016-12-15T06:28:51.786Z,22.62
2016-12-15T06:29:55.229Z,22.6
2016-12-15T06:30:58.688Z,22.63
2016-12-15T06:32:02.130Z,22.63
2016-12-15T06:33:05.598Z,22.66
2016-12-15T06:34:09.049Z,22.63
2016-12-15T06:35:12.516Z,22.6
2016-12-15T06:36:15.978Z,22.63
2016-12-15T06:37:19.423Z,22.73
2016-12-15T06:38:22.886Z,22.59
2016-12-15T06:39:26.339Z,22.63
2016-12-15T06:40:29.794Z,22.62
2016-12-15T06:41:33.259Z,22.69
2016-12-15T06:42:36.704Z,22.68
2016-12-15T06:43:40.148Z,22.73
2016-12-15T06:44:43.599Z,22.72
2016-12-15T06:45:47.062Z,22.66
2016-12-15T06:46:50.522Z,22.66
2016-12-15T06:47:53.969Z,22.81
2016-12-15T06:48:57.424Z,22.75
2016-12-15T06:50:00.866Z,22.78
2016-12-15T06:51:04.314Z,22.78
2016-12-15T06:52:07.766Z,22.8
2016-12-15T06:53:11.227Z,22.75
2016-12-15T06:54:14.682Z,22.8
2016-12-15T06:55:18.138Z,22.72
2016-12-15T06:56:21.594Z,22.81
2016-12-15T06:57:25.059Z,22.78
2016-12-15T06:58:28.529Z,22.83
2016-12-15T06:59:31.975Z,22.84
2016-12-15T07:00:35.417Z,22.94
2016-12-15T07:01:38.884Z,22.98
2016-12-15T07:02:42.333Z,22.99
2016-12-15T07:03:45.775Z,22.94
2016-12-15T07:04:49.240Z,23.02
2016-12-15T07:05:52.699Z,23.05
2016-12-15T07:06:56.165Z,23.09
2016-12-15T07:07:59.647Z,23.02
2016-12-15T07:09:03.101Z,23.12
2016-12-15T07:10:06.544Z,22.99
2016-12-15T07:11:09.990Z,23.05
2016-12-15T07:12:13.443Z,23.08
2016-12-15T07:13:16.884Z,23.13
2016-12-15T07:14:20.345Z,23.1
2016-12-15T07:15:23.805Z,23.1
2016-12-15T07:16:27.245Z,23.15
2016-12-15T07:17:30.699Z,23.08
2016-12-15T07:19:01.300Z,23.06
2016-12-15T07:20:04.742Z,23.1
2016-12-15T07:21:08.198Z,23.08
2016-12-15T07:22:11.650Z,23.05
2016-12-15T07:23:15.111Z,23.08
2016-12-15T07:24:18.558Z,23.1
2016-12-15T07:25:22.004Z,23
2016-12-15T07:26:25.466Z,23.09
2016-12-15T07:27:28.912Z,23.05
2016-12-15T07:28:32.356Z,23.12
2016-12-15T07:29:35.810Z,23.1
2016-12-15T07:30:39.272Z,23.12
2016-12-15T07:31:42.722Z,23.1
2016-12-15T07:32:46.164Z,23.09
2016-12-15T07:33:49.624Z,23.18
2016-12-15T07:34:53.063Z,23.15
2016-12-15T07:35:56.515Z,23.2
2016-12-15T07:36:59.969Z,23.1
2016-12-15T07:38:03.425Z,23.1
2016-12-15T07:39:06.878Z,22.68
2016-12-15T07:40:10.346Z,22.41
2016-12-15T07:41:13.786Z,22.18
2016-12-15T07:42:17.245Z,22.15
2016-12-15T07:43:20.707Z,22.11
2016-12-15T07:44:51.229Z,22.28
2016-12-15T07:45:54.669Z,22.47
2016-12-15T07:46:58.125Z,22.6
2016-12-15T07:48:01.585Z,22.8
2016-12-15T07:49:05.030Z,22.8
2016-12-15T07:50:08.485Z,22.87
2016-12-15T07:51:11.976Z,22.9
2016-12-15T07:52:15.441Z,23.06
2016-12-15T07:53:18.882Z,22.94
2016-12-15T07:54:22.336Z,22.73
2016-12-15T07:55:25.799Z,22.39
2016-12-15T07:56:29.248Z,22.3
2016-12-15T07:57:32.698Z,22.25
2016-12-15T07:58:36.161Z,22.15
2016-12-15T07:59:39.605Z,22.08
2016-12-15T08:00:43.060Z,22.08
2016-12-15T08:01:46.518Z,22.22
2016-12-15T08:02:49.966Z,22.5
2016-12-15T08:03:53.426Z,22.53
2016-12-15T08:04:56.885Z,22.63
2016-12-15T08:06:00.330Z,22.78
2016-12-15T08:07:03.795Z,22.72
2016-12-15T08:08:07.264Z,22.55
2016-12-15T08:09:10.712Z,22.57
2016-12-15T08:10:14.159Z,22.41
2016-12-15T08:12:45.871Z,22.25
2016-12-15T08:13:49.314Z,22.2
2016-12-15T08:14:52.756Z,22.22
2016-12-15T08:15:56.200Z,22.23
2016-12-15T08:16:59.651Z,22.17
2016-12-15T08:18:03.114Z,22.18
2016-12-15T08:19:06.562Z,22.18
2016-12-15T08:20:10.007Z,22.25
2016-12-15T08:21:40.566Z,22.47
2016-12-15T08:22:44.010Z,22.51
2016-12-15T08:23:47.461Z,22.66
2016-12-15T08:24:50.898Z,22.72
2016-12-15T08:27:22.379Z,22.8
2016-12-15T08:28:25.833Z,22.93
2016-12-15T08:29:29.290Z,22.84
2016-12-15T08:30:32.741Z,22.91
2016-12-15T08:31:36.198Z,22.94
2016-12-15T08:32:39.651Z,22.94
2016-12-15T08:33:43.101Z,23.03
2016-12-15T08:34:46.548Z,23.03
2016-12-15T08:35:49.998Z,23.09
2016-12-15T08:36:53.441Z,23.1
2016-12-15T08:37:56.906Z,23.12
2016-12-15T08:39:00.357Z,23.13
2016-12-15T08:40:03.824Z,23.09
2016-12-15T08:42:35.303Z,22.83
2016-12-15T08:43:38.762Z,22.78
2016-12-15T08:44:43.779Z,22.51
2016-12-15T08:47:16.717Z,22.72
2016-12-15T08:48:20.167Z,22.76
2016-12-15T08:49:23.621Z,22.8
2016-12-15T08:50:27.091Z,22.84
2016-12-15T08:51:30.534Z,22.96
2016-12-15T08:52:34.649Z,22.96
2016-12-15T08:53:38.130Z,22.99
2016-12-15T08:54:41.574Z,23.03
2016-12-15T08:56:11.901Z,23.1
2016-12-15T08:57:42.457Z,23.08
2016-12-15T08:58:45.898Z,23.03
2016-12-15T08:59:49.355Z,23.17
2016-12-15T09:01:19.322Z,23.15
2016-12-15T09:02:22.768Z,23.15
2016-12-15T09:03:26.219Z,23.1
2016-12-15T09:04:29.663Z,23.15
2016-12-15T09:05:33.136Z,23.13
2016-12-15T09:06:36.596Z,23.23
2016-12-15T09:07:40.045Z,23.25
2016-12-15T09:08:50.519Z,23.2
2016-12-15T09:09:53.958Z,23.28
2016-12-15T09:10:57.445Z,23.25
2016-12-15T09:12:00.894Z,23.32
2016-12-15T09:13:04.372Z,23.21
2016-12-15T09:14:07.765Z,23.32
2016-12-15T09:15:11.244Z,23.34
2016-12-15T09:16:14.710Z,23.32
2016-12-15T09:17:18.155Z,23.32
2016-12-15T09:18:21.606Z,23.47
2016-12-15T09:19:51.912Z,23.47
2016-12-15T09:20:55.370Z,23.41
2016-12-15T09:21:58.834Z,23.31
2016-12-15T09:23:02.284Z,23.34
2016-12-15T09:24:06.425Z,23.44
2016-12-15T09:26:38.498Z,23
2016-12-15T09:27:41.952Z,22.72
2016-12-15T09:28:45.415Z,22.57
2016-12-15T09:29:48.859Z,22.33
2016-12-15T09:30:52.325Z,22.39
2016-12-15T09:31:55.798Z,22.5
2016-12-15T09:32:59.276Z,22.62
2016-12-15T09:34:02.726Z,22.78
2016-12-15T09:35:06.213Z,22.9
2016-12-15T09:37:37.684Z,23.05
2016-12-15T09:39:08.587Z,22.9
2016-12-15T09:40:19.156Z,22.83
2016-12-15T09:41:22.614Z,22.6
2016-12-15T09:42:51.975Z,22.28
2016-12-15T09:43:56.269Z,22.15
2016-12-15T09:44:59.741Z,22.15
2016-12-15T09:46:03.191Z,22.07
2016-12-15T09:47:06.674Z,22.04
2016-12-15T09:48:10.130Z,22
2016-12-15T09:50:41.566Z,21.98
2016-12-15T09:51:45.043Z,21.75
2016-12-15T09:52:48.496Z,21.73
2016-12-15T09:53:51.954Z,21.57
2016-12-15T09:54:55.404Z,21.55
2016-12-15T09:55:58.870Z,21.5
2016-12-15T09:57:02.338Z,21.39
2016-12-15T09:58:05.789Z,21.29
2016-12-15T09:59:09.255Z,21.24
2016-12-15T10:00:12.717Z,21.07
2016-12-15T10:01:16.172Z,21.07
2016-12-15T10:02:19.615Z,21.07
2016-12-15T10:03:23.080Z,21.09
2016-12-15T10:04:26.530Z,21.06
2016-12-15T10:05:29.978Z,21.11
2016-12-15T10:06:33.433Z,21.17
2016-12-15T10:07:36.885Z,21.2
2016-12-15T10:08:40.340Z,21.09
2016-12-15T10:09:43.798Z,21.09
2016-12-15T10:10:47.260Z,21.05
2016-12-15T10:11:50.703Z,21.06
2016-12-15T10:12:54.159Z,21.37
2016-12-15T10:13:57.608Z,21.54
2016-12-15T10:15:01.065Z,21.75
2016-12-15T10:16:04.526Z,21.91
2016-12-15T10:17:07.976Z,22.04
2016-12-15T10:18:37.919Z,22.25
2016-12-15T10:19:41.363Z,22.17
2016-12-15T10:20:44.819Z,22.15
2016-12-15T10:22:14.567Z,22.29
2016-12-15T10:23:18.009Z,22.36
2016-12-15T10:24:21.456Z,22.41
2016-12-15T10:25:24.927Z,22.36
2016-12-15T10:26:28.379Z,22.44
2016-12-15T10:29:00.058Z,22.57
2016-12-15T10:30:03.504Z,22.57
2016-12-15T10:31:06.961Z,22.62
2016-12-15T10:32:37.267Z,22.66
2016-12-15T10:35:08.359Z,22.73
2016-12-15T10:36:11.817Z,22.81
2016-12-15T10:37:15.298Z,22.73
2016-12-15T10:38:18.741Z,22.88
2016-12-15T10:39:22.186Z,22.88
2016-12-15T10:40:25.644Z,22.91
2016-12-15T10:41:29.086Z,22.88
2016-12-15T10:42:33.358Z,22.93
2016-12-15T10:43:37.647Z,22.9
2016-12-15T10:45:05.044Z,22.99
2016-12-15T10:46:08.511Z,23.05
2016-12-15T10:47:11.966Z,23.03
2016-12-15T10:48:43.771Z,23.1
2016-12-15T10:49:47.228Z,23.03
2016-12-15T10:50:50.678Z,23.03
2016-12-15T10:51:54.111Z,23.09
2016-12-15T10:52:57.578Z,23.12
2016-12-15T10:54:01.031Z,23.1
2016-12-15T10:55:04.471Z,23.09
2016-12-15T10:56:07.922Z,23.15
2016-12-15T10:57:38.825Z,23.17
2016-12-15T10:58:42.299Z,23.12
2016-12-15T10:59:45.758Z,23.24
2016-12-15T11:00:49.234Z,23.17
2016-12-15T11:01:52.692Z,23.21
2016-12-15T11:02:56.139Z,23.23
2016-12-15T11:03:59.605Z,23.24
2016-12-15T11:05:03.067Z,23.23
2016-12-15T11:06:06.531Z,23.23
2016-12-15T11:07:09.980Z,23.34
2016-12-15T11:08:13.445Z,23.24
2016-12-15T11:09:16.913Z,23.27
2016-12-15T11:10:20.360Z,23.32
2016-12-15T11:12:52.063Z,23.32
2016-12-15T11:13:55.516Z,23.25
2016-12-15T11:14:58.950Z,23.32
2016-12-15T11:16:02.457Z,23.41
2016-12-15T11:17:05.969Z,23.36
2016-12-15T11:18:09.428Z,23.44
2016-12-15T11:19:12.889Z,23.41
2016-12-15T11:20:16.328Z,23.34
2016-12-15T11:21:19.808Z,23.41
2016-12-15T11:22:23.272Z,23.39
2016-12-15T11:23:26.736Z,23.36
2016-12-15T11:24:30.199Z,23.37
2016-12-15T11:25:33.641Z,23.44
2016-12-15T11:26:37.103Z,23.5
2016-12-15T11:27:40.541Z,23.55
2016-12-15T11:28:44.004Z,23.5
2016-12-15T11:29:47.456Z,23.44
2016-12-15T11:30:50.902Z,23.48
2016-12-15T11:31:54.365Z,23.48
2016-12-15T11:32:57.817Z,23.44
2016-12-15T11:34:01.263Z,23.55
2016-12-15T11:35:04.730Z,23.51
2016-12-15T11:36:08.188Z,23.51
2016-12-15T11:37:11.647Z,23.61
2016-12-15T11:38:15.112Z,23.61
2016-12-15T11:39:18.577Z,23.51
2016-12-15T11:40:22.033Z,23.58
2016-12-15T11:41:25.494Z,23.56
2016-12-15T11:42:28.942Z,23.58
2016-12-15T11:43:32.394Z,23.59
2016-12-15T11:44:35.839Z,23.56
2016-12-15T11:45:39.297Z,23.48
2016-12-15T11:46:42.759Z,23.59
2016-12-15T11:47:46.249Z,23.47
2016-12-15T11:48:49.687Z,23.48
2016-12-15T11:49:53.151Z,23.47
2016-12-15T11:50:56.608Z,23.46
2016-12-15T11:52:00.050Z,23.5
2016-12-15T11:53:03.524Z,23.5
2016-12-15T11:54:06.999Z,23.39
2016-12-15T11:55:10.434Z,23.41
2016-12-15T11:56:13.889Z,23.47
2016-12-15T11:57:17.354Z,23.76
2016-12-15T11:58:20.814Z,23.66
2016-12-15T11:59:24.287Z,23.78
2016-12-15T12:00:27.746Z,23.62
2016-12-15T12:01:31.210Z,23.51
2016-12-15T12:02:34.657Z,23.48
2016-12-15T12:03:38.133Z,23.47
2016-12-15T12:05:08.099Z,23.46
2016-12-15T12:06:11.548Z,23.47
2016-12-15T12:07:14.993Z,23.46
2016-12-15T12:08:18.448Z,23.43
2016-12-15T12:09:21.911Z,23.43
2016-12-15T12:10:25.352Z,23.43
2016-12-15T12:11:28.818Z,23.41
2016-12-15T12:12:32.273Z,23.46
2016-12-15T12:13:35.713Z,23.39
2016-12-15T12:14:39.173Z,23.4
2016-12-15T12:15:42.633Z,23.46
2016-12-15T12:16:46.081Z,23.34
2016-12-15T12:17:49.537Z,23.41
2016-12-15T12:18:52.973Z,23.4
2016-12-15T12:19:56.406Z,23.5
2016-12-15T12:20:59.882Z,23.37
2016-12-15T12:22:03.339Z,23.39
2016-12-15T12:24:34.435Z,23.54
2016-12-15T12:25:37.895Z,23.34
2016-12-15T12:26:41.349Z,23.36
2016-12-15T12:27:44.786Z,23.51
2016-12-15T12:28:48.242Z,23.54
2016-12-15T12:29:51.688Z,23.41
2016-12-15T12:30:55.141Z,23.5
2016-12-15T12:31:58.593Z,23.47
2016-12-15T12:33:02.048Z,23.43
2016-12-15T12:34:05.506Z,23.41
2016-12-15T12:35:08.956Z,23.41
2016-12-15T12:36:12.412Z,23.39
2016-12-15T12:37:15.856Z,23.43
2016-12-15T12:38:19.304Z,23.36
2016-12-15T12:39:22.768Z,23.51
2016-12-15T12:40:26.201Z,23.37
2016-12-15T12:41:29.643Z,23.34
2016-12-15T12:42:33.102Z,23.43
2016-12-15T12:43:36.560Z,23.39
2016-12-15T12:44:40.011Z,23.37
2016-12-15T12:45:43.456Z,23.39
2016-12-15T12:46:46.902Z,23.4
2016-12-15T12:47:50.347Z,23.4
2016-12-15T12:48:53.820Z,23.4
2016-12-15T12:49:57.278Z,23.34
2016-12-15T12:51:00.739Z,23.37
2016-12-15T12:52:04.187Z,23.48
2016-12-15T12:53:07.639Z,23.41
2016-12-15T12:54:11.091Z,23.4
2016-12-15T12:55:14.544Z,23.43
2016-12-15T12:56:17.996Z,23.51
2016-12-15T12:58:49.100Z,23.48
2016-12-15T12:59:52.552Z,23.48
2016-12-15T13:01:23.465Z,23.44
2016-12-15T13:02:26.910Z,23.41
2016-12-15T13:03:57.452Z,23.54
2016-12-15T13:05:00.894Z,23.44
2016-12-15T13:06:04.360Z,23.51
2016-12-15T13:07:07.812Z,23.51
2016-12-15T13:08:11.257Z,23.48
2016-12-15T13:09:14.716Z,23.46
2016-12-15T13:10:18.164Z,23.54
2016-12-15T13:11:21.612Z,23.56
2016-12-15T13:12:25.097Z,23.59
2016-12-15T13:13:28.538Z,23.63
2016-12-15T13:14:31.985Z,23.43
2016-12-15T13:15:35.449Z,23.32
2016-12-15T13:16:38.912Z,23.34
2016-12-15T13:17:42.366Z,23.41
2016-12-15T13:18:45.822Z,23.44
2016-12-15T13:19:49.280Z,23.55
2016-12-15T13:20:52.735Z,23.44
2016-12-15T13:23:23.864Z,23.54
2016-12-15T13:24:27.306Z,23.61
2016-12-15T13:25:30.766Z,23.62
2016-12-15T13:26:34.223Z,23.61
2016-12-15T13:27:37.670Z,23.65
2016-12-15T13:30:09.361Z,23.71
2016-12-15T13:31:12.812Z,23.68
2016-12-15T13:32:16.249Z,23.65
2016-12-15T13:33:19.707Z,23.71
2016-12-15T13:34:23.172Z,23.66
2016-12-15T13:35:54.029Z,23.81
2016-12-15T13:36:57.487Z,23.74
2016-12-15T13:38:00.930Z,23.74
2016-12-15T13:39:04.383Z,23.8
2016-12-15T13:40:07.826Z,23.73
2016-12-15T13:41:11.272Z,23.76
2016-12-15T13:42:14.725Z,23.81
2016-12-15T13:43:18.174Z,23.69
2016-12-15T13:44:21.628Z,23.76
2016-12-15T13:45:25.088Z,23.73
2016-12-15T13:46:28.527Z,23.63
2016-12-15T13:47:31.986Z,23.74
2016-12-15T13:48:35.443Z,23.69
2016-12-15T13:49:38.896Z,23.66
2016-12-15T13:50:42.344Z,23.71
2016-12-15T13:51:45.802Z,23.78
2016-12-15T13:52:49.260Z,23.76
2016-12-15T13:53:52.712Z,23.69
2016-12-15T13:54:56.184Z,23.76
2016-12-15T13:55:59.648Z,23.77
2016-12-15T13:57:03.099Z,23.73
2016-12-15T13:58:06.554Z,23.78
2016-12-15T13:59:10.017Z,23.83
2016-12-15T14:00:13.477Z,23.78
2016-12-15T14:01:16.940Z,23.86
2016-12-15T14:02:46.298Z,23.8
2016-12-15T14:03:50.592Z,23.84
2016-12-15T14:05:17.959Z,23.93
2016-12-15T14:06:21.415Z,23.92
2016-12-15T14:07:24.881Z,23.98
2016-12-15T14:08:28.331Z,23.96
2016-12-15T14:09:31.790Z,23.99
2016-12-15T14:10:35.237Z,23.98
2016-12-15T14:11:38.692Z,23.99